Kitimat, Canada
Current Conditions -  °F | °C
As of 7:31 AM on Thursday 30 Oct 2014 (Local Time) from CYXT Reporting Station
Haze Haze  
Wind Chill: 39°   Ceiling: 7100
Heat Index: 39°   Visibility: 1mi
Dew Point: 39°   Wind: 3mph
Humidity: 100%   Direction: 100°E
Pressure: 29.64"   Gusts: NA
Location:  54°N, 128.7°W
Report Text: CYXT 301431Z 10003KT 080V160 1SM BR BKN071 04/04 A2964 RMK FG4AC3 VIS VRB 1/2-11/2 SLP043
Loading
Personal Weather Stations






























Interactive Weather Map
Tropical Storm Tracking
New forecast layout! Learn more

10-Day Weather Forecast

Advertisements
Track Severe Weather on mobile